createdAt,value
2022-07-29T00:01:19.503Z,61.00
2022-07-29T00:04:22.528Z,61.30
2022-07-29T00:07:24.860Z,61.10
2022-07-29T00:10:26.665Z,61.50
2022-07-29T00:13:32.262Z,62.00
2022-07-29T00:16:34.788Z,62.30
2022-07-29T00:19:36.648Z,61.40
2022-07-29T00:22:39.458Z,61.90
2022-07-29T00:25:41.243Z,62.10
2022-07-29T00:28:43.067Z,62.00
2022-07-29T00:31:45.080Z,62.00
2022-07-29T00:34:46.998Z,62.40
2022-07-29T00:37:48.806Z,63.00
2022-07-29T00:40:50.651Z,63.00
2022-07-29T00:43:52.402Z,62.70
2022-07-29T00:46:54.418Z,62.90
2022-07-29T00:49:56.363Z,63.10
2022-07-29T00:52:58.255Z,63.30
2022-07-29T00:56:00.403Z,62.90
2022-07-29T00:59:02.421Z,64.50
2022-07-29T01:02:04.510Z,63.70
2022-07-29T01:05:06.893Z,65.00
2022-07-29T01:08:09.276Z,65.80
2022-07-29T01:11:11.278Z,65.00
2022-07-29T01:14:13.639Z,65.70
2022-07-29T01:17:24.732Z,65.90
2022-07-29T01:20:31.331Z,65.90
2022-07-29T01:23:53.890Z,66.60
2022-07-29T01:26:55.627Z,66.60
2022-07-29T01:29:59.250Z,65.40
2022-07-29T01:33:05.134Z,66.30
2022-07-29T01:36:09.143Z,66.30
2022-07-29T01:39:22.015Z,65.20
2022-07-29T01:42:42.793Z,66.10
2022-07-29T01:45:47.951Z,66.70
2022-07-29T01:48:53.986Z,66.70
2022-07-29T01:51:58.528Z,67.00
2022-07-29T01:55:03.282Z,66.40
2022-07-29T01:58:06.731Z,66.20
2022-07-29T02:01:10.378Z,66.60
2022-07-29T02:04:12.901Z,67.20
2022-07-29T02:07:32.984Z,66.50
2022-07-29T02:10:35.463Z,66.90
2022-07-29T02:13:37.894Z,66.80
2022-07-29T02:16:41.014Z,67.00
2022-07-29T02:19:43.451Z,66.60
2022-07-29T02:22:45.921Z,66.90
2022-07-29T02:25:49.690Z,66.20
2022-07-29T02:28:53.380Z,66.80
2022-07-29T02:31:56.795Z,67.40
2022-07-29T02:34:59.453Z,67.40
2022-07-29T02:38:02.345Z,66.70
2022-07-29T02:41:12.162Z,67.60
2022-07-29T02:44:15.782Z,68.00
2022-07-29T02:47:20.216Z,68.00
2022-07-29T02:50:24.409Z,68.10
2022-07-29T02:53:27.692Z,67.80
2022-07-29T02:56:30.989Z,67.70
2022-07-29T02:59:35.325Z,67.80
2022-07-29T03:02:38.848Z,67.80
2022-07-29T03:05:40.878Z,67.60
2022-07-29T03:08:43.369Z,67.90
2022-07-29T03:11:49.666Z,67.30
2022-07-29T03:14:53.301Z,67.90
2022-07-29T03:17:55.559Z,67.30
2022-07-29T03:20:57.518Z,68.00
2022-07-29T03:23:59.270Z,67.80
2022-07-29T03:27:01.966Z,67.80
2022-07-29T03:30:04.612Z,68.40
2022-07-29T03:33:13.298Z,67.60
2022-07-29T03:36:15.427Z,68.00
2022-07-29T03:39:22.729Z,67.40
2022-07-29T03:42:31.104Z,67.70
2022-07-29T03:45:36.158Z,67.70
2022-07-29T03:48:40.701Z,68.20
2022-07-29T03:51:42.690Z,67.90
2022-07-29T03:54:44.922Z,68.10
2022-07-29T03:57:47.393Z,67.80
2022-07-29T04:00:49.681Z,69.00
2022-07-29T04:03:52.231Z,69.50
2022-07-29T04:06:54.123Z,70.30
2022-07-29T04:09:55.943Z,71.20
2022-07-29T04:12:57.789Z,70.40
2022-07-29T04:15:59.799Z,70.50
2022-07-29T04:19:01.622Z,70.40
2022-07-29T04:22:03.481Z,70.20
2022-07-29T04:25:05.440Z,70.00
2022-07-29T04:28:07.991Z,69.50
2022-07-29T04:31:10.276Z,70.20
2022-07-29T04:34:12.713Z,69.60
2022-07-29T04:37:14.840Z,69.60
2022-07-29T04:40:16.827Z,69.80
2022-07-29T04:43:22.547Z,70.30
2022-07-29T04:46:25.115Z,71.80
2022-07-29T04:49:27.109Z,73.40
2022-07-29T04:52:29.240Z,73.50
2022-07-29T04:55:31.020Z,73.60
2022-07-29T04:58:34.883Z,72.50
2022-07-29T05:01:36.748Z,71.70
2022-07-29T05:04:38.550Z,70.90
2022-07-29T05:07:40.344Z,69.10
2022-07-29T05:10:42.093Z,68.50
2022-07-29T05:13:46.082Z,68.50
2022-07-29T05:16:48.916Z,67.90
2022-07-29T05:19:50.719Z,66.90
2022-07-29T05:22:52.539Z,67.50
2022-07-29T05:25:54.367Z,66.50
2022-07-29T05:28:56.225Z,67.10
2022-07-29T05:31:58.004Z,66.40
2022-07-29T05:34:59.937Z,67.80
2022-07-29T05:38:01.883Z,68.70
2022-07-29T05:41:04.019Z,67.80
2022-07-29T05:44:05.904Z,67.40
2022-07-29T05:47:07.682Z,65.40
2022-07-29T05:50:09.633Z,64.90
2022-07-29T05:53:19.921Z,63.90
2022-07-29T05:56:22.505Z,62.70
2022-07-29T05:59:29.855Z,62.70
2022-07-29T06:02:32.192Z,62.10
2022-07-29T06:05:34.081Z,62.20
2022-07-29T06:08:36.835Z,60.90
2022-07-29T06:11:38.595Z,58.50
2022-07-29T06:14:40.482Z,58.50
2022-07-29T06:18:00.050Z,57.90
2022-07-29T06:21:08.346Z,55.90
2022-07-29T06:24:11.723Z,55.90
2022-07-29T06:27:14.409Z,54.20
2022-07-29T06:30:16.246Z,54.40
2022-07-29T06:33:21.241Z,52.00
2022-07-29T06:36:25.157Z,53.10
2022-07-29T06:39:27.065Z,53.80
2022-07-29T06:42:28.956Z,53.40
2022-07-29T06:45:31.632Z,52.90
2022-07-29T06:48:33.848Z,54.10
2022-07-29T06:51:35.796Z,55.20
2022-07-29T06:54:37.656Z,54.80
2022-07-29T06:57:39.542Z,54.50
2022-07-29T07:00:41.855Z,53.90
2022-07-29T07:03:43.812Z,52.90
2022-07-29T07:06:47.818Z,51.70
2022-07-29T07:09:49.854Z,52.70
2022-07-29T07:12:52.200Z,52.20
2022-07-29T07:15:59.935Z,51.90
2022-07-29T07:19:06.361Z,50.10
2022-07-29T07:22:11.740Z,50.30
2022-07-29T07:25:15.786Z,49.90
2022-07-29T07:28:18.214Z,49.50
2022-07-29T07:31:20.507Z,48.30
2022-07-29T07:34:29.575Z,47.30
2022-07-29T07:37:32.314Z,46.80
2022-07-29T07:40:37.561Z,45.40
2022-07-29T07:43:43.155Z,46.00
2022-07-29T07:46:45.438Z,48.00
2022-07-29T07:49:48.730Z,47.70
2022-07-29T07:52:59.747Z,48.50
2022-07-29T07:56:17.246Z,47.40
2022-07-29T07:59:19.357Z,46.60
2022-07-29T08:02:21.970Z,48.20
2022-07-29T08:05:26.556Z,48.30
2022-07-29T08:08:28.609Z,46.60
2022-07-29T08:11:35.231Z,45.80
2022-07-29T08:14:42.824Z,45.10
2022-07-29T08:17:47.932Z,43.80
2022-07-29T08:20:50.093Z,43.60
2022-07-29T08:23:58.668Z,46.60
2022-07-29T08:27:03.190Z,47.30
2022-07-29T08:30:05.696Z,45.60
2022-07-29T08:33:07.715Z,45.60
2022-07-29T08:36:22.834Z,43.90
2022-07-29T08:39:25.573Z,42.00
2022-07-29T08:42:29.978Z,41.00
2022-07-29T08:45:35.694Z,40.00
2022-07-29T08:48:38.224Z,39.20
2022-07-29T08:51:49.625Z,37.60
2022-07-29T08:54:53.315Z,39.70
2022-07-29T08:57:57.485Z,39.10
2022-07-29T09:01:02.436Z,39.80
2022-07-29T09:04:08.273Z,40.50
2022-07-29T09:07:17.456Z,41.40
2022-07-29T09:10:19.464Z,39.50
2022-07-29T09:13:21.461Z,40.00
2022-07-29T09:16:50.990Z,39.10
2022-07-29T09:19:45.920Z,38.60
2022-07-29T09:22:52.845Z,36.50
2022-07-29T09:25:56.335Z,35.60
2022-07-29T09:28:59.447Z,35.00
2022-07-29T09:32:07.256Z,34.60
2022-07-29T09:35:33.403Z,33.80
2022-07-29T09:39:00.223Z,35.00
2022-07-29T09:42:03.934Z,32.90
2022-07-29T09:45:07.445Z,32.10
2022-07-29T09:48:17.191Z,30.90
2022-07-29T09:51:25.583Z,30.70
2022-07-29T09:54:35.347Z,31.70
2022-07-29T09:57:40.103Z,31.80
2022-07-29T10:00:49.402Z,31.90
2022-07-29T11:03:39.994Z,33.60
2022-07-29T11:07:04.112Z,37.20
2022-07-29T11:10:14.881Z,33.40
2022-07-29T11:13:41.075Z,33.70
2022-07-29T11:17:02.693Z,32.30
2022-07-29T11:20:27.336Z,32.20
2022-07-29T11:23:34.787Z,35.10
2022-07-29T11:26:37.136Z,34.30
2022-07-29T11:29:48.772Z,35.70
2022-07-29T11:32:51.660Z,35.80
2022-07-29T11:36:28.165Z,36.60
2022-07-29T11:39:37.229Z,35.20
2022-07-29T11:42:41.753Z,35.70
2022-07-29T11:45:47.308Z,34.70
2022-07-29T11:48:49.555Z,36.50
2022-07-29T11:51:54.910Z,36.50
2022-07-29T11:55:00.834Z,35.70
2022-07-29T11:58:11.835Z,37.10
2022-07-29T12:01:18.141Z,39.20
2022-07-29T12:04:20.023Z,38.20
2022-07-29T12:07:34.679Z,38.30
2022-07-29T12:10:37.460Z,38.40
2022-07-29T12:13:40.253Z,39.10
2022-07-29T12:16:44.340Z,37.90
2022-07-29T12:19:46.192Z,38.50
2022-07-29T12:22:48.118Z,37.70
2022-07-29T12:25:50.136Z,38.70
2022-07-29T12:28:52.046Z,38.60
2022-07-29T12:31:58.095Z,38.40
2022-07-29T12:35:01.382Z,40.20
2022-07-29T12:38:03.667Z,39.00
2022-07-29T12:41:05.662Z,36.70
2022-07-29T12:44:07.447Z,37.10
2022-07-29T12:47:09.259Z,38.40
2022-07-29T12:50:12.047Z,36.80
2022-07-29T12:53:13.924Z,36.70
2022-07-29T12:56:41.610Z,35.30
2022-07-29T12:59:40.605Z,37.10
2022-07-29T13:02:43.013Z,35.30
2022-07-29T13:05:49.454Z,34.00
2022-07-29T13:09:00.354Z,33.80
2022-07-29T13:12:06.613Z,34.40
2022-07-29T13:15:15.754Z,34.60
2022-07-29T13:18:27.781Z,34.10
2022-07-29T13:21:29.669Z,33.90
2022-07-29T13:24:31.484Z,33.10
2022-07-29T13:27:34.650Z,34.10
2022-07-29T13:30:36.508Z,33.50
2022-07-29T13:33:46.553Z,33.90
2022-07-29T13:36:48.337Z,35.00
2022-07-29T13:39:53.017Z,34.80
2022-07-29T13:42:55.218Z,34.90
2022-07-29T13:45:57.101Z,33.70
2022-07-29T13:48:59.065Z,33.90
2022-07-29T13:52:01.276Z,33.20
2022-07-29T13:55:03.791Z,32.90
2022-07-29T13:58:05.638Z,33.90
2022-07-29T14:01:07.512Z,34.20
2022-07-29T14:04:10.485Z,32.40
2022-07-29T14:07:16.255Z,34.80
2022-07-29T14:10:20.199Z,32.80
2022-07-29T14:13:25.260Z,33.40
2022-07-29T14:16:27.636Z,32.70
2022-07-29T14:19:29.587Z,33.30
2022-07-29T14:22:31.456Z,34.40
2022-07-29T14:25:33.910Z,34.60
2022-07-29T14:28:39.007Z,32.80
2022-07-29T14:31:43.732Z,33.50
2022-07-29T14:34:45.526Z,32.40
2022-07-29T14:37:47.324Z,33.10
2022-07-29T14:40:50.874Z,31.20
2022-07-29T14:43:52.888Z,32.60
2022-07-29T14:46:54.681Z,32.60
2022-07-29T14:49:56.528Z,31.40
2022-07-29T14:52:58.334Z,33.00
2022-07-29T14:56:15.103Z,31.20
2022-07-29T14:59:22.776Z,30.80
2022-07-29T15:02:45.679Z,31.50
2022-07-29T15:05:47.791Z,31.30
2022-07-29T15:08:50.000Z,31.70
2022-07-29T15:11:51.998Z,31.20
2022-07-29T15:14:53.894Z,30.90
2022-07-29T15:17:55.705Z,31.90
2022-07-29T15:20:57.560Z,32.50
2022-07-29T15:23:59.401Z,32.00
2022-07-29T15:27:01.233Z,33.40
2022-07-29T15:30:03.145Z,32.10
2022-07-29T15:33:04.974Z,31.40
2022-07-29T15:36:07.011Z,31.20
2022-07-29T15:39:08.806Z,31.60
2022-07-29T15:42:10.613Z,30.70
2022-07-29T15:45:12.388Z,30.90
2022-07-29T15:48:14.896Z,30.90
2022-07-29T15:51:18.776Z,31.00
2022-07-29T15:54:20.577Z,30.10
2022-07-29T15:57:22.934Z,30.70
2022-07-29T16:00:24.803Z,29.70
2022-07-29T16:03:26.675Z,30.10
2022-07-29T16:06:28.557Z,31.20
2022-07-29T16:09:30.413Z,30.80
2022-07-29T16:12:32.252Z,31.90
2022-07-29T16:15:34.091Z,31.40
2022-07-29T16:18:35.937Z,31.50
2022-07-29T16:21:38.449Z,31.60
2022-07-29T16:24:40.551Z,30.70
2022-07-29T16:27:42.528Z,31.10
2022-07-29T16:30:44.470Z,30.60
2022-07-29T16:33:54.705Z,31.30
2022-07-29T16:36:57.550Z,31.50
2022-07-29T16:39:59.397Z,30.10
2022-07-29T16:43:01.220Z,30.70
2022-07-29T16:46:03.075Z,28.50
2022-07-29T16:49:04.973Z,28.50
2022-07-29T16:52:06.865Z,29.20
2022-07-29T16:55:08.806Z,28.60
2022-07-29T16:58:11.101Z,30.60
2022-07-29T17:01:12.984Z,29.80
2022-07-29T17:04:14.864Z,29.80
2022-07-29T17:07:16.700Z,30.90
2022-07-29T17:10:18.779Z,31.30
2022-07-29T17:13:20.691Z,30.30
2022-07-29T17:16:22.547Z,30.60
2022-07-29T17:19:24.560Z,28.50
2022-07-29T17:22:26.344Z,27.70
2022-07-29T17:25:28.187Z,29.10
2022-07-29T17:28:29.974Z,27.90
2022-07-29T17:31:32.086Z,28.80
2022-07-29T17:34:33.936Z,27.20
2022-07-29T17:37:36.010Z,27.90
2022-07-29T17:40:37.855Z,28.10
2022-07-29T17:43:39.697Z,28.10
2022-07-29T17:46:41.796Z,28.50
2022-07-29T17:49:44.409Z,28.80
2022-07-29T17:52:46.190Z,28.60
2022-07-29T17:55:48.133Z,28.60
2022-07-29T17:58:50.320Z,29.10
2022-07-29T18:01:52.271Z,28.30
2022-07-29T18:04:54.049Z,29.60
2022-07-29T18:07:55.817Z,30.10
2022-07-29T18:10:57.612Z,30.50
2022-07-29T18:13:59.385Z,31.10
2022-07-29T18:17:04.320Z,30.80
2022-07-29T18:20:06.950Z,31.20
2022-07-29T18:23:09.072Z,31.40
2022-07-29T18:26:10.898Z,31.20
2022-07-29T18:29:12.733Z,32.20
2022-07-29T18:32:14.509Z,34.20
2022-07-29T18:35:16.802Z,35.80
2022-07-29T18:38:18.855Z,36.40
2022-07-29T18:41:20.664Z,36.20
2022-07-29T18:44:22.976Z,37.40
2022-07-29T18:47:24.833Z,37.10
2022-07-29T18:50:34.312Z,37.10
2022-07-29T18:53:36.901Z,37.70
2022-07-29T18:56:40.233Z,38.30
2022-07-29T18:59:42.068Z,38.10
2022-07-29T19:02:44.036Z,38.40
2022-07-29T19:05:46.053Z,38.00
2022-07-29T19:08:47.933Z,38.10
2022-07-29T19:11:53.049Z,38.80
2022-07-29T19:14:57.695Z,39.50
2022-07-29T19:18:01.290Z,39.90
2022-07-29T19:21:03.602Z,40.80
2022-07-29T19:24:10.046Z,40.90
2022-07-29T19:27:14.278Z,41.00
2022-07-29T19:30:16.067Z,42.00
2022-07-29T19:33:18.425Z,42.30
2022-07-29T19:36:20.539Z,41.70
2022-07-29T19:39:31.985Z,42.80
2022-07-29T19:42:37.554Z,42.60
2022-07-29T19:45:39.685Z,42.60
2022-07-29T19:48:41.538Z,42.90
2022-07-29T19:51:43.384Z,42.90
2022-07-29T19:54:46.298Z,42.80
2022-07-29T19:57:48.191Z,42.90
2022-07-29T20:00:50.111Z,42.90
2022-07-29T20:03:51.901Z,43.10
2022-07-29T20:06:53.899Z,43.10
2022-07-29T20:09:56.160Z,42.70
2022-07-29T20:12:58.276Z,43.50
2022-07-29T20:16:00.744Z,43.00
2022-07-29T20:19:02.768Z,43.40
2022-07-29T20:22:04.699Z,43.20
2022-07-29T20:25:07.037Z,43.60
2022-07-29T20:28:08.991Z,43.80
2022-07-29T20:31:10.992Z,43.30
2022-07-29T20:34:13.002Z,44.90
2022-07-29T20:37:14.896Z,45.60
2022-07-29T20:40:16.954Z,46.60
2022-07-29T20:43:18.742Z,46.40
2022-07-29T20:46:20.696Z,46.30
2022-07-29T20:49:22.760Z,47.50
2022-07-29T20:52:24.949Z,47.30
2022-07-29T20:55:27.318Z,46.60
2022-07-29T20:58:29.367Z,46.20
2022-07-29T21:01:33.489Z,46.10
2022-07-29T21:04:35.403Z,47.00
2022-07-29T21:07:37.343Z,47.50
2022-07-29T21:10:39.378Z,47.30
2022-07-29T21:13:41.855Z,49.00
2022-07-29T21:16:43.833Z,49.50
2022-07-29T21:19:45.879Z,50.50
2022-07-29T21:22:47.673Z,51.00
2022-07-29T21:25:49.539Z,51.90
2022-07-29T21:28:51.376Z,52.30
2022-07-29T21:31:53.396Z,52.60
2022-07-29T21:34:55.204Z,53.20
2022-07-29T21:37:57.005Z,53.50
2022-07-29T21:40:58.811Z,53.10
2022-07-29T21:44:01.379Z,53.80
2022-07-29T21:47:03.911Z,53.40
2022-07-29T21:50:07.221Z,53.10
2022-07-29T21:53:12.824Z,52.60
2022-07-29T21:56:18.096Z,51.70
2022-07-29T21:59:19.907Z,51.30
2022-07-29T22:02:21.668Z,51.60
2022-07-29T22:05:23.892Z,52.30
2022-07-29T22:08:25.978Z,51.90
2022-07-29T22:11:27.733Z,51.60
2022-07-29T22:14:29.508Z,51.70
2022-07-29T22:17:31.701Z,51.60
2022-07-29T22:20:33.538Z,52.10
2022-07-29T22:23:36.592Z,51.40
2022-07-29T22:26:38.457Z,52.30
2022-07-29T22:29:40.399Z,52.50
2022-07-29T22:32:42.287Z,51.90
2022-07-29T22:35:44.054Z,52.10
2022-07-29T22:38:49.144Z,53.30
2022-07-29T22:41:53.619Z,53.50
2022-07-29T22:44:55.371Z,53.70
2022-07-29T22:47:59.105Z,54.30
2022-07-29T22:51:01.301Z,54.20
2022-07-29T22:54:04.017Z,53.60
2022-07-29T22:57:05.931Z,54.00
2022-07-29T23:00:08.144Z,53.80
2022-07-29T23:03:10.156Z,54.80
2022-07-29T23:06:12.090Z,56.00
2022-07-29T23:09:13.888Z,54.50
2022-07-29T23:12:15.830Z,55.80
2022-07-29T23:15:18.235Z,54.90
2022-07-29T23:18:20.223Z,55.80
2022-07-29T23:21:24.698Z,56.90
2022-07-29T23:24:26.501Z,56.50
2022-07-29T23:27:28.311Z,56.50
2022-07-29T23:30:30.229Z,56.80
2022-07-29T23:33:32.123Z,56.70
2022-07-29T23:36:33.916Z,56.70
2022-07-29T23:39:35.713Z,57.40
2022-07-29T23:42:37.740Z,56.70
2022-07-29T23:45:44.597Z,57.10
2022-07-29T23:48:47.169Z,57.00
2022-07-29T23:51:49.277Z,57.40
2022-07-29T23:54:51.238Z,57.90
2022-07-29T23:57:53.025Z,57.80
